Time;durP1;ratioP1;P1;durP2;ratioP2;P2;SDS_P1;SDS_P2;PMS_P1;PMS_P2;Temp;Humidity;BMP_temperature;BMP_pressure;BME280_temperature;BME280_humidity;BME280_pressure;Samples;Min_cycle;Max_cycle;Signal;HPM_P1;HPM_P2
2022/01/28 00:00:31;;;;;;;5.25;3.28;;;;;;;;;;5032626;28;20021;-66
2022/01/28 00:03:10;;;;;;;6.50;3.47;;;;;;;;;;5032411;28;20029;-70
2022/01/28 00:05:37;;;;;;;5.45;3.33;;;;;;;;;;5031718;28;20025;-66
2022/01/28 00:08:04;;;;;;;6.18;3.50;;;;;;;;;;5031894;28;20480;-67
2022/01/28 00:10:31;;;;;;;7.97;3.65;;;;;;;;;;5031732;28;20415;-65
2022/01/28 00:15:38;;;;;;;6.03;3.70;;;;;;;;;;5032286;28;20481;-67
2022/01/28 00:18:51;;;;;;;6.57;3.22;;;;;;;;;;5031466;28;20018;-64
2022/01/28 00:39:37;;;;;;;5.95;3.45;;;;;;;;;;5051474;28;20035;-67
2022/01/28 00:42:03;;;;;;;6.15;2.63;;;;;;;;;;5049906;28;20056;-67
2022/01/28 00:44:29;;;;;;;6.07;3.38;;;;;;;;;;5050055;28;20036;-68
2022/01/28 00:46:55;;;;;;;6.15;3.22;;;;;;;;;;5051264;28;20430;-69
2022/01/28 00:49:21;;;;;;;7.93;3.45;;;;;;;;;;5050035;28;20159;-67
2022/01/28 00:51:47;;;;;;;6.35;3.60;;;;;;;;;;5051651;28;20056;-66
2022/01/28 00:54:13;;;;;;;6.45;3.28;;;;;;;;;;5051123;28;20017;-68
2022/01/28 00:56:40;;;;;;;7.20;3.17;;;;;;;;;;5051754;28;20033;-65
2022/01/28 00:59:06;;;;;;;5.95;2.78;;;;;;;;;;5051354;28;20091;-66
2022/01/28 01:01:32;;;;;;;7.57;3.50;;;;;;;;;;5050249;28;20025;-67
2022/01/28 01:03:59;;;;;;;5.72;2.92;;;;;;;;;;5055804;28;20025;-66
2022/01/28 01:06:25;;;;;;;6.18;3.28;;;;;;;;;;5055470;28;20078;-70
2022/01/28 01:08:51;;;;;;;5.72;2.63;;;;;;;;;;5055668;28;20468;-68
2022/01/28 01:11:20;;;;;;;5.53;3.20;;;;;;;;;;5055159;28;20029;-64
2022/01/28 01:13:47;;;;;;;7.10;2.83;;;;;;;;;;5055156;28;20052;-66
2022/01/28 01:16:15;;;;;;;5.72;2.85;;;;;;;;;;5050418;28;20043;-68
2022/01/28 01:21:20;;;;;;;5.43;2.95;;;;;;;;;;5034772;28;20081;-68
2022/01/28 01:23:53;;;;;;;7.20;3.00;;;;;;;;;;5035207;28;20099;-68
2022/01/28 01:26:21;;;;;;;5.65;2.80;;;;;;;;;;5035169;28;20021;-68
2022/01/28 01:28:48;;;;;;;6.78;2.90;;;;;;;;;;5035087;28;20496;-66
2022/01/28 01:31:18;;;;;;;6.38;2.90;;;;;;;;;;5034932;28;20095;-66
2022/01/28 01:33:55;;;;;;;5.13;2.80;;;;;;;;;;5037937;28;20053;-65
2022/01/28 01:36:22;;;;;;;7.15;3.38;;;;;;;;;;5034953;28;20026;-65
2022/01/28 01:38:48;;;;;;;5.57;3.00;;;;;;;;;;5034563;28;20098;-66
2022/01/28 01:41:31;;;;;;;5.63;3.17;;;;;;;;;;5034894;28;20052;-65
2022/01/28 01:52:00;;;;;;;5.68;2.92;;;;;;;;;;5034120;28;20059;-66
2022/01/28 01:52:39;;;;;;;12.98;2.88;;;;;;;;;;5054159;28;20036;-65
2022/01/28 01:55:06;;;;;;;6.03;2.83;;;;;;;;;;5053868;28;20075;-65
2022/01/28 01:57:32;;;;;;;6.65;3.50;;;;;;;;;;5054313;28;20545;-65
2022/01/28 01:59:58;;;;;;;6.10;3.00;;;;;;;;;;5054511;28;20032;-66
2022/01/28 02:02:24;;;;;;;4.90;2.70;;;;;;;;;;5054122;28;20118;-65
2022/01/28 02:04:50;;;;;;;4.90;3.03;;;;;;;;;;5054492;28;20025;-66
2022/01/28 02:07:17;;;;;;;4.32;2.60;;;;;;;;;;5038608;28;20033;-67
2022/01/28 02:09:43;;;;;;;6.45;3.13;;;;;;;;;;5052914;28;20033;-69
2022/01/28 02:12:09;;;;;;;9.48;3.15;;;;;;;;;;5052774;28;20017;-66
2022/01/28 02:14:36;;;;;;;7.63;3.20;;;;;;;;;;5054141;28;20491;-67
2022/01/28 02:17:03;;;;;;;5.55;2.92;;;;;;;;;;5053920;28;20465;-65
2022/01/28 02:19:29;;;;;;;5.75;2.60;;;;;;;;;;5053912;28;20029;-69
2022/01/28 02:21:55;;;;;;;5.03;2.67;;;;;;;;;;5049900;28;20479;-68
2022/01/28 02:24:28;;;;;;;5.30;2.70;;;;;;;;;;5033625;28;20025;-67
2022/01/28 02:26:55;;;;;;;5.82;2.53;;;;;;;;;;5033345;28;20045;-65
2022/01/28 02:29:30;;;;;;;4.53;2.13;;;;;;;;;;5033615;28;20021;-67
2022/01/28 02:31:58;;;;;;;4.72;2.30;;;;;;;;;;5033716;28;20044;-67
2022/01/28 02:34:24;;;;;;;5.32;2.28;;;;;;;;;;5032588;28;20025;-68
2022/01/28 02:36:50;;;;;;;4.25;2.17;;;;;;;;;;5033897;28;20091;-68
2022/01/28 02:39:16;;;;;;;3.85;2.00;;;;;;;;;;5033723;28;20052;-68
2022/01/28 02:41:46;;;;;;;4.18;2.13;;;;;;;;;;5033716;28;20018;-66
2022/01/28 02:44:24;;;;;;;4.15;2.25;;;;;;;;;;5034120;28;20560;-66
2022/01/28 02:47:12;;;;;;;4.32;2.08;;;;;;;;;;5033717;28;20232;-66
2022/01/28 02:49:38;;;;;;;4.18;2.05;;;;;;;;;;5033356;28;20365;-67
2022/01/28 02:52:05;;;;;;;4.35;1.80;;;;;;;;;;5033598;28;20030;-66
2022/01/28 02:54:40;;;;;;;3.13;1.42;;;;;;;;;;5033540;28;20040;-65
2022/01/28 02:57:06;;;;;;;3.58;2.05;;;;;;;;;;5033591;28;20020;-66
2022/01/28 02:59:32;;;;;;;3.83;1.80;;;;;;;;;;5031854;28;20087;-66
2022/01/28 03:01:58;;;;;;;3.55;1.95;;;;;;;;;;5033212;28;20014;-66
2022/01/28 03:07:09;;;;;;;3.83;1.90;;;;;;;;;;5033181;28;20103;-65
2022/01/28 03:12:59;;;;;;;3.40;1.67;;;;;;;;;;5030467;28;20072;-67
2022/01/28 03:15:25;;;;;;;3.47;1.45;;;;;;;;;;5032696;28;20056;-67
2022/01/28 03:17:53;;;;;;;3.85;1.80;;;;;;;;;;5033013;28;20021;-67
2022/01/28 03:22:46;;;;;;;3.00;1.40;;;;;;;;;;5032799;28;20056;-67
2022/01/28 03:25:12;;;;;;;2.58;1.30;;;;;;;;;;5032429;28;20036;-67
2022/01/28 03:27:51;;;;;;;3.78;1.50;;;;;;;;;;5032875;28;20033;-65
2022/01/28 03:30:18;;;;;;;2.65;1.23;;;;;;;;;;5032802;28;20088;-65
2022/01/28 03:32:44;;;;;;;2.78;1.30;;;;;;;;;;5032798;28;20032;-67
2022/01/28 03:35:13;;;;;;;3.38;1.30;;;;;;;;;;5032709;28;20060;-67
2022/01/28 03:37:39;;;;;;;2.50;1.23;;;;;;;;;;5031368;28;20037;-64
2022/01/28 03:40:07;;;;;;;2.70;1.13;;;;;;;;;;5032698;28;20028;-64
2022/01/28 03:42:33;;;;;;;3.95;1.20;;;;;;;;;;5032696;28;20163;-65
2022/01/28 03:44:59;;;;;;;4.57;1.42;;;;;;;;;;5031381;28;20123;-64
2022/01/28 03:47:25;;;;;;;3.20;1.20;;;;;;;;;;5032576;28;20021;-65
2022/01/28 03:49:51;;;;;;;2.70;1.35;;;;;;;;;;5032415;28;20029;-65
2022/01/28 03:52:17;;;;;;;2.17;1.00;;;;;;;;;;5032245;28;20029;-66
2022/01/28 03:54:43;;;;;;;2.58;1.10;;;;;;;;;;5032348;28;20021;-68
2022/01/28 03:57:10;;;;;;;2.25;1.13;;;;;;;;;;5032281;28;20032;-67
2022/01/28 03:59:36;;;;;;;1.98;0.90;;;;;;;;;;5032166;28;20072;-66
2022/01/28 04:02:05;;;;;;;1.58;0.90;;;;;;;;;;5032001;28;20092;-65
2022/01/28 04:12:40;;;;;;;4.07;1.27;;;;;;;;;;5032377;28;20095;-66
2022/01/28 04:15:21;;;;;;;3.90;1.00;;;;;;;;;;5032190;28;20025;-65
2022/01/28 04:17:48;;;;;;;2.83;1.02;;;;;;;;;;5032071;28;20384;-67
2022/01/28 04:20:14;;;;;;;2.60;1.20;;;;;;;;;;5031733;28;20626;-66
2022/01/28 04:22:40;;;;;;;2.95;1.02;;;;;;;;;;5031963;28;20115;-66
2022/01/28 04:25:06;;;;;;;2.33;0.90;;;;;;;;;;5031863;28;20511;-67
2022/01/28 04:27:33;;;;;;;2.05;1.00;;;;;;;;;;5031813;28;20018;-67
2022/01/28 04:29:59;;;;;;;2.17;1.13;;;;;;;;;;5031768;28;20037;-65
2022/01/28 04:32:27;;;;;;;2.25;0.80;;;;;;;;;;5031778;28;20353;-67
2022/01/28 04:34:54;;;;;;;2.97;0.90;;;;;;;;;;5031955;28;20086;-67
2022/01/28 04:37:48;;;;;;;2.38;0.93;;;;;;;;;;5030891;28;20022;-65
2022/01/28 04:40:17;;;;;;;2.42;1.02;;;;;;;;;;5031726;28;20094;-66
2022/01/28 04:45:29;;;;;;;3.10;1.02;;;;;;;;;;5051593;28;20060;-66
2022/01/28 05:03:53;;;;;;;2.08;1.00;;;;;;;;;;5051357;28;20417;-67
2022/01/28 05:23:18;;;;;;;2.63;0.80;;;;;;;;;;5050883;28;20036;-66
2022/01/28 05:28:03;;;;;;;2.35;0.90;;;;;;;;;;5051067;28;20488;-68
2022/01/28 05:30:29;;;;;;;1.33;0.75;;;;;;;;;;5050914;28;20511;-66
2022/01/28 05:32:55;;;;;;;1.77;0.80;;;;;;;;;;5051227;28;20017;-68
2022/01/28 05:35:22;;;;;;;3.63;0.93;;;;;;;;;;5051174;28;20060;-67
2022/01/28 05:37:48;;;;;;;4.65;0.60;;;;;;;;;;5049616;28;20025;-67
2022/01/28 05:40:14;;;;;;;3.55;0.85;;;;;;;;;;5050727;28;20025;-66
2022/01/28 05:42:40;;;;;;;1.52;0.68;;;;;;;;;;5050770;28;20021;-65
2022/01/28 05:45:07;;;;;;;3.08;0.70;;;;;;;;;;5050529;28;20060;-67
2022/01/28 05:47:35;;;;;;;8.73;0.68;;;;;;;;;;5036258;28;20022;-70
2022/01/28 05:50:02;;;;;;;4.10;0.77;;;;;;;;;;5033428;28;20507;-69
2022/01/28 05:52:30;;;;;;;2.97;0.82;;;;;;;;;;5034651;28;20044;-69
2022/01/28 05:54:56;;;;;;;3.97;0.98;;;;;;;;;;5034781;28;20354;-69
2022/01/28 05:57:22;;;;;;;7.05;0.98;;;;;;;;;;5034629;28;20120;-69
2022/01/28 05:59:52;;;;;;;4.00;0.90;;;;;;;;;;5037624;28;20027;-65
2022/01/28 06:02:18;;;;;;;3.08;0.70;;;;;;;;;;5054083;28;20033;-65
2022/01/28 06:04:45;;;;;;;6.90;0.85;;;;;;;;;;5054350;28;20052;-69
2022/01/28 06:07:11;;;;;;;2.20;0.80;;;;;;;;;;5054281;28;20028;-66
2022/01/28 06:09:37;;;;;;;2.00;0.77;;;;;;;;;;5054348;28;20615;-68
2022/01/28 06:12:03;;;;;;;5.35;0.70;;;;;;;;;;5054699;28;20434;-68
2022/01/28 06:14:29;;;;;;;4.82;0.80;;;;;;;;;;5054491;28;20048;-70
2022/01/28 06:16:56;;;;;;;18.48;0.95;;;;;;;;;;5053409;28;20025;-68
2022/01/28 06:19:22;;;;;;;1.38;0.63;;;;;;;;;;5046714;28;20017;-68
2022/01/28 06:21:48;;;;;;;2.80;0.75;;;;;;;;;;5043872;28;20049;-68
2022/01/28 06:24:14;;;;;;;3.47;0.80;;;;;;;;;;5050422;28;20033;-68
2022/01/28 06:26:40;;;;;;;4.80;0.85;;;;;;;;;;5052707;28;20029;-66
2022/01/28 06:29:06;;;;;;;0.85;0.60;;;;;;;;;;5052619;28;20158;-67
2022/01/28 06:31:33;;;;;;;6.28;0.80;;;;;;;;;;5052832;28;20032;-66
2022/01/28 06:33:59;;;;;;;3.33;0.90;;;;;;;;;;5053635;28;20566;-66
2022/01/28 06:36:25;;;;;;;3.10;0.80;;;;;;;;;;5052930;28;20029;-65
2022/01/28 06:38:51;;;;;;;3.47;0.70;;;;;;;;;;5051977;28;20369;-65
2022/01/28 06:41:17;;;;;;;8.15;0.75;;;;;;;;;;5052451;28;20039;-66
2022/01/28 06:43:43;;;;;;;2.63;0.88;;;;;;;;;;5053616;28;20017;-65
2022/01/28 06:46:09;;;;;;;3.60;0.70;;;;;;;;;;5053637;28;20028;-65
2022/01/28 06:48:35;;;;;;;2.55;0.57;;;;;;;;;;5053405;28;20057;-66
2022/01/28 06:51:02;;;;;;;1.00;0.50;;;;;;;;;;5052093;28;20048;-64
2022/01/28 06:53:28;;;;;;;4.70;0.80;;;;;;;;;;5053585;28;20032;-65
2022/01/28 06:55:54;;;;;;;2.08;0.80;;;;;;;;;;5053149;28;20017;-65
2022/01/28 06:58:20;;;;;;;1.33;0.65;;;;;;;;;;5053264;28;20021;-64
2022/01/28 07:00:46;;;;;;;6.40;1.15;;;;;;;;;;5051098;28;20033;-65
2022/01/28 07:03:12;;;;;;;2.05;0.60;;;;;;;;;;5053118;28;20021;-65
2022/01/28 07:05:39;;;;;;;4.45;0.88;;;;;;;;;;5053387;28;20147;-66
2022/01/28 07:08:06;;;;;;;2.80;0.73;;;;;;;;;;5053199;28;20014;-64
2022/01/28 07:10:32;;;;;;;1.58;0.63;;;;;;;;;;5052707;28;20035;-65
2022/01/28 07:12:59;;;;;;;2.30;0.75;;;;;;;;;;5052927;28;20104;-65
2022/01/28 07:15:26;;;;;;;1.85;0.70;;;;;;;;;;5052912;28;20025;-65
2022/01/28 07:18:01;;;;;;;2.40;0.77;;;;;;;;;;5053456;28;20040;-65
2022/01/28 07:20:29;;;;;;;0.95;0.50;;;;;;;;;;5053392;28;20487;-66
2022/01/28 07:22:55;;;;;;;1.35;0.40;;;;;;;;;;5052134;28;20037;-66
2022/01/28 07:25:21;;;;;;;1.52;0.70;;;;;;;;;;5053588;28;20025;-66
2022/01/28 07:27:47;;;;;;;1.90;0.68;;;;;;;;;;5053279;28;20033;-66
2022/01/28 07:30:14;;;;;;;2.67;0.60;;;;;;;;;;5052679;28;20468;-67
2022/01/28 07:32:40;;;;;;;1.65;0.60;;;;;;;;;;5053327;28;20033;-67
2022/01/28 07:35:07;;;;;;;1.95;0.50;;;;;;;;;;5053022;28;20021;-67
2022/01/28 07:37:33;;;;;;;1.27;0.60;;;;;;;;;;5053072;28;20048;-66
2022/01/28 07:40:02;;;;;;;1.77;0.60;;;;;;;;;;5052997;28;20025;-67
2022/01/28 07:42:32;;;;;;;1.10;0.60;;;;;;;;;;5053109;28;20104;-66
2022/01/28 07:44:58;;;;;;;1.75;0.70;;;;;;;;;;5052522;28;20017;-65
2022/01/28 07:47:24;;;;;;;2.00;0.80;;;;;;;;;;5042256;28;20036;-65
2022/01/28 07:49:50;;;;;;;1.70;0.65;;;;;;;;;;5031641;28;20044;-65
2022/01/28 07:52:16;;;;;;;1.90;0.55;;;;;;;;;;5033100;28;20036;-65
2022/01/28 07:54:47;;;;;;;1.90;0.77;;;;;;;;;;5033241;28;20544;-65
2022/01/28 07:57:14;;;;;;;1.35;0.70;;;;;;;;;;5033046;28;20032;-65
2022/01/28 07:59:40;;;;;;;3.47;0.63;;;;;;;;;;5032888;28;20017;-65
2022/01/28 08:02:06;;;;;;;1.58;0.65;;;;;;;;;;5032816;28;20048;-65
2022/01/28 08:04:32;;;;;;;1.90;0.68;;;;;;;;;;5032633;28;20079;-66
2022/01/28 08:06:58;;;;;;;1.08;0.60;;;;;;;;;;5032203;28;20128;-65
2022/01/28 08:09:24;;;;;;;1.67;0.57;;;;;;;;;;5032007;28;20022;-66
2022/01/28 08:11:50;;;;;;;1.73;0.75;;;;;;;;;;5032491;28;20498;-66
2022/01/28 08:14:16;;;;;;;1.65;0.60;;;;;;;;;;5032090;28;20484;-66
2022/01/28 08:16:42;;;;;;;1.70;0.57;;;;;;;;;;5032697;28;20030;-66
2022/01/28 08:19:08;;;;;;;2.55;0.70;;;;;;;;;;5032311;28;20032;-66
2022/01/28 08:21:34;;;;;;;1.33;0.50;;;;;;;;;;5031017;28;20050;-65
2022/01/28 08:24:01;;;;;;;1.63;0.70;;;;;;;;;;5032632;28;20024;-66
2022/01/28 08:26:27;;;;;;;1.50;0.60;;;;;;;;;;5031362;28;20378;-66
2022/01/28 08:28:53;;;;;;;3.05;0.95;;;;;;;;;;5032449;28;20022;-66
2022/01/28 08:31:20;;;;;;;1.52;0.65;;;;;;;;;;5032097;28;20037;-66
2022/01/28 08:33:46;;;;;;;2.17;0.60;;;;;;;;;;5032043;28;20053;-66
2022/01/28 08:36:12;;;;;;;1.95;0.70;;;;;;;;;;5032529;28;20030;-67
2022/01/28 08:38:46;;;;;;;2.47;0.80;;;;;;;;;;5032179;28;20021;-67
2022/01/28 08:41:15;;;;;;;1.67;0.63;;;;;;;;;;5032219;28;20477;-67
2022/01/28 08:43:42;;;;;;;4.38;0.70;;;;;;;;;;5032095;28;20057;-67
2022/01/28 08:46:08;;;;;;;3.33;0.60;;;;;;;;;;5032127;28;20495;-67
2022/01/28 08:48:34;;;;;;;2.97;0.60;;;;;;;;;;5032119;28;20425;-69
2022/01/28 08:51:00;;;;;;;3.45;0.90;;;;;;;;;;5031130;28;20056;-67
2022/01/28 08:53:26;;;;;;;2.20;0.70;;;;;;;;;;5031350;28;20029;-66
2022/01/28 08:55:53;;;;;;;4.20;1.00;;;;;;;;;;5031431;28;20369;-69
2022/01/28 08:58:19;;;;;;;7.00;1.02;;;;;;;;;;5031373;28;20025;-67
2022/01/28 09:00:48;;;;;;;9.35;0.80;;;;;;;;;;5031534;28;20372;-69
2022/01/28 09:03:15;;;;;;;6.20;0.75;;;;;;;;;;5030031;28;20018;-66
2022/01/28 09:05:42;;;;;;;3.10;0.80;;;;;;;;;;5031467;28;20025;-66
2022/01/28 09:08:09;;;;;;;5.97;1.10;;;;;;;;;;5031215;28;20025;-68
2022/01/28 09:10:37;;;;;;;5.32;0.90;;;;;;;;;;5029657;28;20039;-66
2022/01/28 09:15:30;;;;;;;5.25;1.27;;;;;;;;;;5031163;28;20028;-67
2022/01/28 09:17:57;;;;;;;11.10;1.52;;;;;;;;;;5030953;28;20135;-71
2022/01/28 09:20:24;;;;;;;13.80;1.48;;;;;;;;;;5031517;28;20029;-71
2022/01/28 09:22:50;;;;;;;4.78;0.80;;;;;;;;;;5031428;28;20081;-72
2022/01/28 09:25:16;;;;;;;8.35;1.63;;;;;;;;;;5045702;28;20483;-68
2022/01/28 09:27:42;;;;;;;4.30;1.27;;;;;;;;;;5054421;28;20040;-67
2022/01/28 09:30:08;;;;;;;3.63;0.82;;;;;;;;;;5052769;28;20044;-72
2022/01/28 09:32:34;;;;;;;2.20;0.70;;;;;;;;;;5054654;28;20365;-72
2022/01/28 09:35:02;;;;;;;5.18;0.90;;;;;;;;;;5054842;28;20017;-72
2022/01/28 09:37:28;;;;;;;7.05;1.05;;;;;;;;;;5042304;28;20017;-70
2022/01/28 09:39:54;;;;;;;3.05;0.77;;;;;;;;;;5034333;28;20034;-70
2022/01/28 09:42:23;;;;;;;3.97;0.80;;;;;;;;;;5034276;28;20033;-68
2022/01/28 09:44:50;;;;;;;5.00;1.08;;;;;;;;;;5041636;28;20416;-65
2022/01/28 09:47:16;;;;;;;4.45;0.95;;;;;;;;;;5042341;28;20563;-72
2022/01/28 09:49:43;;;;;;;3.30;1.00;;;;;;;;;;5041987;28;20028;-69
2022/01/28 09:52:10;;;;;;;2.80;0.80;;;;;;;;;;5034020;28;20087;-70
2022/01/28 09:54:37;;;;;;;3.47;0.85;;;;;;;;;;5045720;28;20392;-71
2022/01/28 09:57:04;;;;;;;4.00;0.98;;;;;;;;;;5054040;28;20633;-68
2022/01/28 09:59:30;;;;;;;8.10;1.05;;;;;;;;;;5054125;28;20407;-70
2022/01/28 10:01:57;;;;;;;5.35;1.00;;;;;;;;;;5045428;28;20030;-68
2022/01/28 10:04:23;;;;;;;5.78;1.10;;;;;;;;;;5050257;28;20029;-68
2022/01/28 10:06:49;;;;;;;6.63;1.13;;;;;;;;;;5053660;28;20045;-66
2022/01/28 10:09:18;;;;;;;4.32;0.88;;;;;;;;;;5052649;28;20056;-67
2022/01/28 10:11:46;;;;;;;7.28;1.02;;;;;;;;;;5040584;28;20029;-68
2022/01/28 10:14:18;;;;;;;3.28;0.82;;;;;;;;;;5033715;28;20053;-69
2022/01/28 10:16:57;;;;;;;3.58;1.00;;;;;;;;;;5033717;28;20040;-69
2022/01/28 10:19:25;;;;;;;3.55;0.88;;;;;;;;;;5033874;28;20590;-68
2022/01/28 10:21:51;;;;;;;2.63;0.88;;;;;;;;;;5033429;28;20120;-72
2022/01/28 10:24:18;;;;;;;3.45;1.05;;;;;;;;;;5032119;28;20032;-69
2022/01/28 10:26:50;;;;;;;2.63;0.93;;;;;;;;;;5033683;28;20026;-69
2022/01/28 10:29:19;;;;;;;3.42;1.05;;;;;;;;;;5034321;28;20029;-67
2022/01/28 10:31:45;;;;;;;3.88;0.98;;;;;;;;;;5033593;28;20045;-67
2022/01/28 10:34:15;;;;;;;3.97;0.95;;;;;;;;;;5032348;28;20025;-70
2022/01/28 10:36:42;;;;;;;2.63;0.85;;;;;;;;;;5031989;28;20497;-67
2022/01/28 10:39:13;;;;;;;2.20;0.80;;;;;;;;;;5032021;28;20104;-66
2022/01/28 10:41:48;;;;;;;3.22;0.80;;;;;;;;;;5033576;28;20485;-68
2022/01/28 10:44:15;;;;;;;3.22;0.90;;;;;;;;;;5033606;28;20030;-67
2022/01/28 10:46:41;;;;;;;3.33;0.95;;;;;;;;;;5033307;28;20029;-67
2022/01/28 10:49:08;;;;;;;2.88;1.10;;;;;;;;;;5033240;28;20032;-66
2022/01/28 10:51:42;;;;;;;2.78;0.90;;;;;;;;;;5033284;28;20033;-66
2022/01/28 10:54:09;;;;;;;2.55;0.77;;;;;;;;;;5033252;28;20018;-67
2022/01/28 10:56:47;;;;;;;3.88;1.00;;;;;;;;;;5032292;28;20026;-66
2022/01/28 10:59:15;;;;;;;3.20;1.10;;;;;;;;;;5032160;28;20061;-69
2022/01/28 11:01:42;;;;;;;2.65;0.90;;;;;;;;;;5033640;28;20092;-65
2022/01/28 11:04:10;;;;;;;4.03;1.00;;;;;;;;;;5032995;28;20497;-66
2022/01/28 11:06:36;;;;;;;3.95;1.15;;;;;;;;;;5031834;28;20029;-65
2022/01/28 11:09:02;;;;;;;4.68;1.40;;;;;;;;;;5033083;28;20060;-66
2022/01/28 11:11:28;;;;;;;3.92;0.90;;;;;;;;;;5033078;28;20499;-66
2022/01/28 11:13:54;;;;;;;3.50;1.30;;;;;;;;;;5032806;28;20044;-65
2022/01/28 11:16:21;;;;;;;5.05;1.70;;;;;;;;;;5032885;28;20479;-65
2022/01/28 11:18:47;;;;;;;9.38;4.30;;;;;;;;;;5039570;28;20051;-71
2022/01/28 11:21:17;;;;;;;14.73;11.85;;;;;;;;;;5052335;28;20484;-67
2022/01/28 11:23:53;;;;;;;14.88;8.82;;;;;;;;;;5052991;28;20123;-69
2022/01/28 11:26:38;;;;;;;12.82;7.35;;;;;;;;;;5052957;28;20040;-67
2022/01/28 11:29:27;;;;;;;10.88;7.20;;;;;;;;;;5040802;28;20511;-68
2022/01/28 11:31:54;;;;;;;11.30;6.65;;;;;;;;;;5031360;28;20507;-71
2022/01/28 11:34:27;;;;;;;7.05;4.70;;;;;;;;;;5043368;28;20025;-65
2022/01/28 11:36:56;;;;;;;6.47;4.15;;;;;;;;;;5053477;28;20555;-66
2022/01/28 11:39:30;;;;;;;7.53;4.68;;;;;;;;;;5051934;28;20025;-65
2022/01/28 11:42:01;;;;;;;8.60;3.92;;;;;;;;;;5052018;28;20032;-66
2022/01/28 11:44:40;;;;;;;6.88;4.07;;;;;;;;;;5052067;28;20025;-68
2022/01/28 11:47:08;;;;;;;12.82;5.00;;;;;;;;;;5066818;28;20031;-66
2022/01/28 11:49:52;;;;;;;11.50;4.88;;;;;;;;;;5070862;28;20027;-68
2022/01/28 11:52:22;;;;;;;9.43;3.95;;;;;;;;;;5050908;28;20407;-65
2022/01/28 11:54:48;;;;;;;8.25;3.72;;;;;;;;;;5050520;28;20009;-65
2022/01/28 11:57:15;;;;;;;9.20;3.55;;;;;;;;;;5059781;28;20032;-65
2022/01/28 11:59:41;;;;;;;6.07;3.15;;;;;;;;;;5065166;28;20025;-68
2022/01/28 12:02:09;;;;;;;7.18;2.85;;;;;;;;;;5051586;28;20025;-67
2022/01/28 12:04:42;;;;;;;6.75;2.67;;;;;;;;;;5051655;28;20067;-66
2022/01/28 12:07:15;;;;;;;4.32;2.22;;;;;;;;;;5051602;28;20036;-68
2022/01/28 12:09:43;;;;;;;6.55;3.00;;;;;;;;;;5047325;28;20033;-65
2022/01/28 12:12:10;;;;;;;6.10;2.92;;;;;;;;;;5031628;28;20033;-64
2022/01/28 12:17:51;;;;;;;4.30;1.90;;;;;;;;;;5055666;28;20041;-64
2022/01/28 12:20:19;;;;;;;5.82;1.98;;;;;;;;;;5071222;28;20025;-64
2022/01/28 12:23:00;;;;;;;4.25;2.10;;;;;;;;;;5055384;28;20052;-67
2022/01/28 12:25:36;;;;;;;5.60;2.03;;;;;;;;;;5031387;28;20071;-64
2022/01/28 12:28:21;;;;;;;4.43;1.58;;;;;;;;;;5031861;28;20017;-64
2022/01/28 12:30:51;;;;;;;5.50;1.60;;;;;;;;;;5031416;28;20037;-64
2022/01/28 12:33:23;;;;;;;4.43;1.67;;;;;;;;;;5031359;28;20369;-66
2022/01/28 12:35:52;;;;;;;5.70;1.85;;;;;;;;;;5031362;28;20103;-65
2022/01/28 12:38:22;;;;;;;4.55;1.55;;;;;;;;;;5031117;28;20029;-64
2022/01/28 12:40:52;;;;;;;3.78;1.58;;;;;;;;;;5031010;28;20013;-65
2022/01/28 12:43:19;;;;;;;3.90;1.50;;;;;;;;;;5030395;28;20112;-68
2022/01/28 12:46:04;;;;;;;5.85;1.67;;;;;;;;;;5031035;28;20022;-65
2022/01/28 12:48:30;;;;;;;4.70;1.20;;;;;;;;;;5031113;28;20025;-64
2022/01/28 12:50:57;;;;;;;3.67;1.27;;;;;;;;;;5031054;28;20079;-68
2022/01/28 12:53:43;;;;;;;4.70;1.50;;;;;;;;;;5031049;28;20437;-64
2022/01/28 12:56:10;;;;;;;2.92;1.10;;;;;;;;;;5031289;28;20071;-64
2022/01/28 12:58:36;;;;;;;2.35;0.90;;;;;;;;;;5030334;28;20029;-67
2022/01/28 13:01:10;;;;;;;5.13;1.20;;;;;;;;;;5050951;28;20108;-68
2022/01/28 13:03:43;;;;;;;3.70;1.17;;;;;;;;;;5051250;28;20054;-67
2022/01/28 13:06:42;;;;;;;2.55;1.08;;;;;;;;;;5050018;28;20032;-66
2022/01/28 13:09:11;;;;;;;3.38;1.10;;;;;;;;;;5051153;28;20112;-64
2022/01/28 13:11:46;;;;;;;2.85;1.10;;;;;;;;;;5049661;28;20049;-65
2022/01/28 13:14:13;;;;;;;4.90;1.33;;;;;;;;;;5051518;28;20044;-65
2022/01/28 13:16:40;;;;;;;5.45;1.10;;;;;;;;;;5039028;28;20022;-64
2022/01/28 13:19:07;;;;;;;3.20;1.13;;;;;;;;;;5043456;28;20020;-68
2022/01/28 13:21:34;;;;;;;3.55;1.00;;;;;;;;;;5030693;28;20112;-65
2022/01/28 13:24:06;;;;;;;2.88;0.90;;;;;;;;;;5067283;28;20056;-65
2022/01/28 13:26:32;;;;;;;2.75;1.02;;;;;;;;;;5071026;28;20108;-63
2022/01/28 13:29:09;;;;;;;2.88;1.10;;;;;;;;;;5071059;28;20021;-64
2022/01/28 13:31:35;;;;;;;3.85;1.00;;;;;;;;;;5033448;28;20047;-66
2022/01/28 13:34:04;;;;;;;1.90;0.90;;;;;;;;;;5032033;28;20025;-67
2022/01/28 13:36:52;;;;;;;3.15;1.00;;;;;;;;;;5029574;28;20014;-64
2022/01/28 13:39:22;;;;;;;4.57;0.90;;;;;;;;;;5031183;28;20056;-64
2022/01/28 13:41:52;;;;;;;5.70;1.17;;;;;;;;;;5031114;28;20374;-63
2022/01/28 13:44:22;;;;;;;4.80;1.00;;;;;;;;;;5030732;28;20028;-63
2022/01/28 13:46:58;;;;;;;2.40;0.90;;;;;;;;;;5030790;28;20025;-64
2022/01/28 13:49:33;;;;;;;5.68;1.20;;;;;;;;;;5032767;28;20104;-65
2022/01/28 13:52:08;;;;;;;2.65;0.90;;;;;;;;;;5049323;28;20033;-65
2022/01/28 13:54:35;;;;;;;2.90;0.77;;;;;;;;;;5038431;28;20029;-65
2022/01/28 13:57:02;;;;;;;3.30;1.00;;;;;;;;;;5030654;28;20021;-64
2022/01/28 13:59:30;;;;;;;4.68;1.05;;;;;;;;;;5030200;28;20152;-64
2022/01/28 14:01:58;;;;;;;2.67;0.70;;;;;;;;;;5030487;28;20017;-63
2022/01/28 14:04:27;;;;;;;2.58;0.93;;;;;;;;;;5028933;28;20029;-63
2022/01/28 14:07:12;;;;;;;5.22;1.00;;;;;;;;;;5030217;28;20010;-65
2022/01/28 14:09:49;;;;;;;10.38;1.40;;;;;;;;;;5032378;28;20351;-66
2022/01/28 14:12:48;;;;;;;5.80;0.93;;;;;;;;;;5033771;28;20052;-67
2022/01/28 14:15:31;;;;;;;4.35;1.45;;;;;;;;;;5033741;28;20024;-70
2022/01/28 14:18:01;;;;;;;3.85;1.05;;;;;;;;;;5033732;28;20018;-67
2022/01/28 14:20:27;;;;;;;6.05;0.80;;;;;;;;;;5033551;28;20025;-72
2022/01/28 14:22:54;;;;;;;3.88;1.00;;;;;;;;;;5032160;28;20094;-71
2022/01/28 14:25:21;;;;;;;2.53;0.98;;;;;;;;;;5034034;28;20099;-69
2022/01/28 14:30:39;;;;;;;2.83;1.10;;;;;;;;;;5031958;28;20030;-68
2022/01/28 14:33:06;;;;;;;3.90;1.13;;;;;;;;;;5033528;28;20029;-69
2022/01/28 14:35:33;;;;;;;3.03;0.95;;;;;;;;;;5033301;28;20022;-67
2022/01/28 14:37:59;;;;;;;3.75;1.10;;;;;;;;;;5033416;28;20021;-69
2022/01/28 14:40:25;;;;;;;2.75;1.00;;;;;;;;;;5031774;28;20033;-67
2022/01/28 14:42:51;;;;;;;2.67;0.90;;;;;;;;;;5034878;28;20027;-70
2022/01/28 14:45:17;;;;;;;2.63;1.02;;;;;;;;;;5033232;28;20388;-67
2022/01/28 14:47:44;;;;;;;4.80;1.30;;;;;;;;;;5031766;28;20518;-70
2022/01/28 14:50:11;;;;;;;5.88;1.10;;;;;;;;;;5031502;28;20029;-73
2022/01/28 14:52:37;;;;;;;2.97;0.77;;;;;;;;;;5046058;28;20024;-63
2022/01/28 14:55:03;;;;;;;5.00;1.08;;;;;;;;;;5052781;28;20022;-69
2022/01/28 14:57:30;;;;;;;6.70;1.00;;;;;;;;;;5052918;28;20029;-67
2022/01/28 14:59:56;;;;;;;2.95;1.02;;;;;;;;;;5052020;28;20024;-71
2022/01/28 15:02:24;;;;;;;4.18;0.90;;;;;;;;;;5052970;28;20028;-63
2022/01/28 15:04:58;;;;;;;10.75;1.40;;;;;;;;;;5035980;28;20013;-68
2022/01/28 15:07:29;;;;;;;4.32;1.10;;;;;;;;;;5032868;28;20152;-64
2022/01/28 15:09:58;;;;;;;4.22;0.80;;;;;;;;;;5034341;28;20017;-66
2022/01/28 15:12:24;;;;;;;3.90;1.30;;;;;;;;;;5072931;28;20032;-66
2022/01/28 15:14:50;;;;;;;7.50;1.80;;;;;;;;;;5060804;28;20595;-62
2022/01/28 15:17:17;;;;;;;5.43;1.13;;;;;;;;;;5053229;28;20108;-64
2022/01/28 15:19:44;;;;;;;8.45;1.50;;;;;;;;;;5053684;28;20072;-64
2022/01/28 15:22:10;;;;;;;6.10;1.13;;;;;;;;;;5052431;28;20045;-67
2022/01/28 15:24:36;;;;;;;13.65;1.73;;;;;;;;;;5052975;28;20074;-68
2022/01/28 15:27:03;;;;;;;7.22;1.65;;;;;;;;;;5053187;28;20025;-65
2022/01/28 15:37:06;;;;;;;6.43;1.38;;;;;;;;;;5051611;28;20495;-67
2022/01/28 15:39:35;;;;;;;8.52;1.25;;;;;;;;;;5051995;28;20044;-67
2022/01/28 15:42:03;;;;;;;5.68;1.42;;;;;;;;;;5050715;28;20031;-67
2022/01/28 15:44:29;;;;;;;9.32;1.70;;;;;;;;;;5052078;28;20527;-68
2022/01/28 15:46:55;;;;;;;4.25;1.25;;;;;;;;;;5051914;28;20104;-67
2022/01/28 15:49:22;;;;;;;5.65;1.30;;;;;;;;;;5051040;28;20469;-66
2022/01/28 15:51:48;;;;;;;5.85;1.45;;;;;;;;;;5050471;28;20040;-67
2022/01/28 15:54:14;;;;;;;4.32;1.25;;;;;;;;;;5051862;28;20025;-68
2022/01/28 15:56:40;;;;;;;8.07;1.55;;;;;;;;;;5051892;28;20087;-67
2022/01/28 15:59:07;;;;;;;4.50;1.10;;;;;;;;;;5051692;28;20056;-66
2022/01/28 16:01:33;;;;;;;3.78;1.05;;;;;;;;;;5052073;28;20021;-65
2022/01/28 16:03:59;;;;;;;8.85;1.20;;;;;;;;;;5051795;28;20021;-67
2022/01/28 16:06:25;;;;;;;4.32;1.20;;;;;;;;;;5052171;28;20032;-67
2022/01/28 16:08:52;;;;;;;4.45;1.02;;;;;;;;;;5051478;28;20013;-65
2022/01/28 16:11:20;;;;;;;2.88;1.15;;;;;;;;;;5051717;28;20033;-67
2022/01/28 16:19:00;;;;;;;4.47;0.80;;;;;;;;;;5049443;28;20033;-67
2022/01/28 16:21:26;;;;;;;3.50;1.40;;;;;;;;;;5051549;28;20045;-67
2022/01/28 16:23:52;;;;;;;6.25;1.10;;;;;;;;;;5051763;28;20074;-67
2022/01/28 16:26:19;;;;;;;9.65;1.25;;;;;;;;;;5051729;28;20072;-68
2022/01/28 16:28:45;;;;;;;2.83;0.85;;;;;;;;;;5051813;28;20021;-69
2022/01/28 16:31:11;;;;;;;3.33;0.82;;;;;;;;;;5051645;28;20442;-68
2022/01/28 16:33:37;;;;;;;2.38;0.90;;;;;;;;;;5051496;28;20131;-67
2022/01/28 16:36:03;;;;;;;3.33;0.93;;;;;;;;;;5050107;28;20029;-69